Rickmers Seoul — V7EI5 — position and weather

sailwx.info

Track history (hours):
 
Tides and Currents Weather Stations Pressure Air Temp Water Temp Dewpoint Dewpoint Depression Visibility Wind Speed Wind Dir Waves Ship Positions

Rickmers Seoul

Last reported at 2014-Nov-22 08:33 UTC. Time now 2014-Nov-22 14:30 UTC.
Position N 29°55' W 090°05'.

Length 192.9 m; beam 27.8 m; draft 11.2 m.

Type: Ship (hazmat cat A). MMSI: 538001809.

Date/timePositionNaut miles runAvg speedWind from/ knotsBaromVisibWave heightAir tempDewpointWater temp
2014-Nov-22 08:33N 29°55' W 090°05'2 2.3
2014-Nov-22 07:33N 29°57' W 090°04'250 6.7
2014-Nov-20 18:30N 29°22' W 094°48'1010.6
2014-Nov-20 17:33N 29°31' W 094°53'1010.3
2014-Nov-20 16:33N 29°41' W 094°59'8 7.7
2014-Nov-20 15:34N 29°46' W 095°05'5 5.5
2014-Nov-20 14:33N 29°45' W 095°12'4 4.3
2014-Nov-20 13:33N 29°44' W 095°16'  
2014-Nov-15 19:33N 29°44' W 095°16'5 5.2
2014-Nov-15 18:33N 29°45' W 095°10'6 5.6
2014-Nov-15 17:33N 29°45' W 095°04'9 8.5
2014-Nov-15 16:33N 29°39' W 094°58'1212.2
2014-Nov-15 15:34N 29°28' W 094°51'  
Track history (hours):
 
Tides and Currents Weather Stations Pressure Air Temp Water Temp Dewpoint Dewpoint Depression Visibility Wind Speed Wind Dir Waves Ship Positions

Rickmers Seoul

Last reported at 2014-Nov-22 08:33 UTC. Time now 2014-Nov-22 14:30 UTC.
Position N 29°55' W 090°05'.

Length 192.9 m; beam 27.8 m; draft 11.2 m.

Type: Ship (hazmat cat A). MMSI: 538001809.

Date/timePositionNaut miles runAvg speedWind from/ knotsBaromVisibWave heightAir tempDewpointWater temp
2014-Nov-22 08:33N 29°55' W 090°05'2 2.3
2014-Nov-22 07:33N 29°57' W 090°04'250 6.7
2014-Nov-20 18:30N 29°22' W 094°48'1010.6
2014-Nov-20 17:33N 29°31' W 094°53'1010.3
2014-Nov-20 16:33N 29°41' W 094°59'8 7.7
2014-Nov-20 15:34N 29°46' W 095°05'5 5.5
2014-Nov-20 14:33N 29°45' W 095°12'4 4.3
2014-Nov-20 13:33N 29°44' W 095°16'  
2014-Nov-15 19:33N 29°44' W 095°16'5 5.2
2014-Nov-15 18:33N 29°45' W 095°10'6 5.6
2014-Nov-15 17:33N 29°45' W 095°04'9 8.5
2014-Nov-15 16:33N 29°39' W 094°58'1212.2
2014-Nov-15 15:34N 29°28' W 094°51'  

Dump ship's entire track history